sensor_id;sensor_type;location;lat;lon;timestamp;temperature;humidity
18305;DHT22;9278;52.156;21.048;2022-07-17T00:01:10;12.70;99.90
18305;DHT22;9278;52.156;21.048;2022-07-17T00:03:39;12.80;99.90
18305;DHT22;9278;52.156;21.048;2022-07-17T00:06:08;12.70;99.90
18305;DHT22;9278;52.156;21.048;2022-07-17T00:08:36;12.70;99.90
18305;DHT22;9278;52.156;21.048;2022-07-17T00:11:05;12.70;99.90
18305;DHT22;9278;52.156;21.048;2022-07-17T00:13:33;12.70;99.90
18305;DHT22;9278;52.156;21.048;2022-07-17T00:16:01;12.70;99.90
18305;DHT22;9278;52.156;21.048;2022-07-17T00:18:31;12.70;99.90
18305;DHT22;9278;52.156;21.048;2022-07-17T00:20:59;12.70;99.90
18305;DHT22;9278;52.156;21.048;2022-07-17T00:23:28;12.70;99.90
18305;DHT22;9278;52.156;21.048;2022-07-17T00:25:56;12.80;99.90
18305;DHT22;9278;52.156;21.048;2022-07-17T00:28:25;12.70;99.90
18305;DHT22;9278;52.156;21.048;2022-07-17T00:30:53;12.80;99.90
18305;DHT22;9278;52.156;21.048;2022-07-17T00:33:21;12.90;99.90
18305;DHT22;9278;52.156;21.048;2022-07-17T00:35:51;12.80;99.90
18305;DHT22;9278;52.156;21.048;2022-07-17T00:38:19;12.80;99.90
18305;DHT22;9278;52.156;21.048;2022-07-17T00:40:48;12.80;99.90
18305;DHT22;9278;52.156;21.048;2022-07-17T00:43:16;12.80;99.90
18305;DHT22;9278;52.156;21.048;2022-07-17T00:45:44;12.70;99.90
18305;DHT22;9278;52.156;21.048;2022-07-17T00:48:12;12.80;99.90
18305;DHT22;9278;52.156;21.048;2022-07-17T00:50:41;12.90;99.90
18305;DHT22;9278;52.156;21.048;2022-07-17T00:53:11;12.60;99.90
18305;DHT22;9278;52.156;21.048;2022-07-17T00:55:40;12.60;99.90
18305;DHT22;9278;52.156;21.048;2022-07-17T00:58:17;12.70;99.90
18305;DHT22;9278;52.156;21.048;2022-07-17T01:00:48;12.70;99.90
18305;DHT22;9278;52.156;21.048;2022-07-17T01:03:17;12.70;99.90
18305;DHT22;9278;52.156;21.048;2022-07-17T01:05:46;12.60;99.90
18305;DHT22;9278;52.156;21.048;2022-07-17T01:08:16;12.70;99.90
18305;DHT22;9278;52.156;21.048;2022-07-17T01:10:45;12.50;99.90
18305;DHT22;9278;52.156;21.048;2022-07-17T01:13:13;12.60;99.90
18305;DHT22;9278;52.156;21.048;2022-07-17T01:15:43;12.50;99.90
18305;DHT22;9278;52.156;21.048;2022-07-17T01:18:13;12.50;99.90
18305;DHT22;9278;52.156;21.048;2022-07-17T01:20:44;12.50;99.90
18305;DHT22;9278;52.156;21.048;2022-07-17T01:23:15;12.50;99.90
18305;DHT22;9278;52.156;21.048;2022-07-17T01:25:44;12.40;99.90
18305;DHT22;9278;52.156;21.048;2022-07-17T01:28:13;12.50;99.90
18305;DHT22;9278;52.156;21.048;2022-07-17T01:30:46;12.30;99.90
18305;DHT22;9278;52.156;21.048;2022-07-17T01:33:16;12.30;99.90
18305;DHT22;9278;52.156;21.048;2022-07-17T01:35:45;12.20;99.90
18305;DHT22;9278;52.156;21.048;2022-07-17T01:38:14;12.10;99.90
18305;DHT22;9278;52.156;21.048;2022-07-17T01:40:43;12.10;99.90
18305;DHT22;9278;52.156;21.048;2022-07-17T01:43:11;12.00;99.90
18305;DHT22;9278;52.156;21.048;2022-07-17T01:45:40;12.10;99.90
18305;DHT22;9278;52.156;21.048;2022-07-17T01:48:08;12.10;99.90
18305;DHT22;9278;52.156;21.048;2022-07-17T01:50:36;12.00;99.90
18305;DHT22;9278;52.156;21.048;2022-07-17T01:53:05;12.10;99.90
18305;DHT22;9278;52.156;21.048;2022-07-17T01:55:34;12.10;99.90
18305;DHT22;9278;52.156;21.048;2022-07-17T01:58:04;12.10;99.90
18305;DHT22;9278;52.156;21.048;2022-07-17T02:00:32;12.20;99.90
18305;DHT22;9278;52.156;21.048;2022-07-17T02:03:01;12.30;99.90
18305;DHT22;9278;52.156;21.048;2022-07-17T02:05:29;12.20;99.90
18305;DHT22;9278;52.156;21.048;2022-07-17T02:07:57;12.10;99.90
18305;DHT22;9278;52.156;21.048;2022-07-17T02:10:26;12.20;99.90
18305;DHT22;9278;52.156;21.048;2022-07-17T02:12:59;12.20;99.90
18305;DHT22;9278;52.156;21.048;2022-07-17T02:15:28;12.30;99.90
18305;DHT22;9278;52.156;21.048;2022-07-17T02:17:57;12.10;99.90
18305;DHT22;9278;52.156;21.048;2022-07-17T02:20:26;12.20;99.90
18305;DHT22;9278;52.156;21.048;2022-07-17T02:22:54;12.20;99.90
18305;DHT22;9278;52.156;21.048;2022-07-17T02:25:22;12.30;99.90
18305;DHT22;9278;52.156;21.048;2022-07-17T02:27:56;12.30;99.90
18305;DHT22;9278;52.156;21.048;2022-07-17T02:30:24;12.30;99.90
18305;DHT22;9278;52.156;21.048;2022-07-17T02:32:53;12.40;99.90
18305;DHT22;9278;52.156;21.048;2022-07-17T02:35:21;12.50;99.90
18305;DHT22;9278;52.156;21.048;2022-07-17T02:37:49;12.20;99.90
18305;DHT22;9278;52.156;21.048;2022-07-17T02:40:17;12.30;99.90
18305;DHT22;9278;52.156;21.048;2022-07-17T02:42:45;12.20;99.90
18305;DHT22;9278;52.156;21.048;2022-07-17T02:45:15;12.20;99.90
18305;DHT22;9278;52.156;21.048;2022-07-17T02:47:45;12.10;99.90
18305;DHT22;9278;52.156;21.048;2022-07-17T02:50:13;12.10;99.90
18305;DHT22;9278;52.156;21.048;2022-07-17T02:52:42;12.20;99.90
18305;DHT22;9278;52.156;21.048;2022-07-17T02:55:11;12.20;99.90
18305;DHT22;9278;52.156;21.048;2022-07-17T02:57:39;12.20;99.90
18305;DHT22;9278;52.156;21.048;2022-07-17T03:00:10;12.30;99.90
18305;DHT22;9278;52.156;21.048;2022-07-17T03:02:40;12.30;99.90
18305;DHT22;9278;52.156;21.048;2022-07-17T03:05:08;12.40;99.90
18305;DHT22;9278;52.156;21.048;2022-07-17T03:07:37;12.40;99.90
18305;DHT22;9278;52.156;21.048;2022-07-17T03:10:06;12.50;99.90
18305;DHT22;9278;52.156;21.048;2022-07-17T03:12:34;12.40;99.90
18305;DHT22;9278;52.156;21.048;2022-07-17T03:15:03;12.50;99.90
18305;DHT22;9278;52.156;21.048;2022-07-17T03:17:33;12.50;99.90
18305;DHT22;9278;52.156;21.048;2022-07-17T03:20:02;12.60;99.90
18305;DHT22;9278;52.156;21.048;2022-07-17T03:22:31;12.70;99.90
18305;DHT22;9278;52.156;21.048;2022-07-17T03:24:59;12.80;99.90
18305;DHT22;9278;52.156;21.048;2022-07-17T03:27:28;12.80;99.90
18305;DHT22;9278;52.156;21.048;2022-07-17T03:29:56;12.70;99.90
18305;DHT22;9278;52.156;21.048;2022-07-17T03:32:24;12.80;99.90
18305;DHT22;9278;52.156;21.048;2022-07-17T03:34:52;12.80;99.90
18305;DHT22;9278;52.156;21.048;2022-07-17T03:37:22;12.80;99.90
18305;DHT22;9278;52.156;21.048;2022-07-17T03:39:50;12.80;99.90
18305;DHT22;9278;52.156;21.048;2022-07-17T03:42:21;12.90;99.90
18305;DHT22;9278;52.156;21.048;2022-07-17T03:44:49;12.90;99.90
18305;DHT22;9278;52.156;21.048;2022-07-17T03:47:17;12.90;99.90
18305;DHT22;9278;52.156;21.048;2022-07-17T03:49:45;12.90;99.90
18305;DHT22;9278;52.156;21.048;2022-07-17T03:52:14;13.00;99.90
18305;DHT22;9278;52.156;21.048;2022-07-17T03:54:43;13.10;99.90
18305;DHT22;9278;52.156;21.048;2022-07-17T03:57:13;13.20;99.90
18305;DHT22;9278;52.156;21.048;2022-07-17T03:59:41;13.10;99.90
18305;DHT22;9278;52.156;21.048;2022-07-17T04:02:09;13.10;99.90
18305;DHT22;9278;52.156;21.048;2022-07-17T04:04:37;13.30;99.90
18305;DHT22;9278;52.156;21.048;2022-07-17T04:07:06;13.10;99.90
18305;DHT22;9278;52.156;21.048;2022-07-17T04:09:57;13.10;99.90
18305;DHT22;9278;52.156;21.048;2022-07-17T04:12:26;13.10;99.90
18305;DHT22;9278;52.156;21.048;2022-07-17T04:14:55;13.20;99.90
18305;DHT22;9278;52.156;21.048;2022-07-17T04:17:24;13.20;99.90
18305;DHT22;9278;52.156;21.048;2022-07-17T04:19:52;13.00;99.90
18305;DHT22;9278;52.156;21.048;2022-07-17T04:22:21;13.00;99.90
18305;DHT22;9278;52.156;21.048;2022-07-17T04:24:50;13.20;99.90
18305;DHT22;9278;52.156;21.048;2022-07-17T04:27:19;13.30;99.90
18305;DHT22;9278;52.156;21.048;2022-07-17T04:29:48;13.20;99.90
18305;DHT22;9278;52.156;21.048;2022-07-17T04:32:16;13.50;99.90
18305;DHT22;9278;52.156;21.048;2022-07-17T04:34:45;13.50;99.90
18305;DHT22;9278;52.156;21.048;2022-07-17T04:37:13;13.70;99.90
18305;DHT22;9278;52.156;21.048;2022-07-17T04:39:41;14.10;99.90
18305;DHT22;9278;52.156;21.048;2022-07-17T04:42:10;14.10;99.90
18305;DHT22;9278;52.156;21.048;2022-07-17T04:44:41;14.20;99.90
18305;DHT22;9278;52.156;21.048;2022-07-17T04:47:09;14.10;99.90
18305;DHT22;9278;52.156;21.048;2022-07-17T04:49:37;14.10;99.90
18305;DHT22;9278;52.156;21.048;2022-07-17T04:52:05;14.00;99.90
18305;DHT22;9278;52.156;21.048;2022-07-17T04:54:33;14.30;99.90
18305;DHT22;9278;52.156;21.048;2022-07-17T04:57:03;14.50;99.90
18305;DHT22;9278;52.156;21.048;2022-07-17T04:59:32;14.10;99.90
18305;DHT22;9278;52.156;21.048;2022-07-17T05:02:05;14.00;99.90
18305;DHT22;9278;52.156;21.048;2022-07-17T05:04:34;13.90;99.90
18305;DHT22;9278;52.156;21.048;2022-07-17T05:07:02;14.00;99.90
18305;DHT22;9278;52.156;21.048;2022-07-17T05:09:30;13.80;99.90
18305;DHT22;9278;52.156;21.048;2022-07-17T05:11:59;13.70;99.90
18305;DHT22;9278;52.156;21.048;2022-07-17T05:14:28;14.00;99.90
18305;DHT22;9278;52.156;21.048;2022-07-17T05:16:58;14.20;99.90
18305;DHT22;9278;52.156;21.048;2022-07-17T05:19:28;14.30;99.90
18305;DHT22;9278;52.156;21.048;2022-07-17T05:21:56;14.10;99.90
18305;DHT22;9278;52.156;21.048;2022-07-17T05:24:24;14.10;99.90
18305;DHT22;9278;52.156;21.048;2022-07-17T05:26:52;13.90;99.90
18305;DHT22;9278;52.156;21.048;2022-07-17T05:29:21;13.80;99.90
18305;DHT22;9278;52.156;21.048;2022-07-17T05:31:49;14.10;99.90
18305;DHT22;9278;52.156;21.048;2022-07-17T05:34:18;14.10;99.90
18305;DHT22;9278;52.156;21.048;2022-07-17T05:36:47;14.10;99.90
18305;DHT22;9278;52.156;21.048;2022-07-17T05:39:16;14.20;99.90
18305;DHT22;9278;52.156;21.048;2022-07-17T05:41:44;14.50;99.90
18305;DHT22;9278;52.156;21.048;2022-07-17T05:44:12;14.70;99.90
18305;DHT22;9278;52.156;21.048;2022-07-17T05:46:41;14.20;99.90
18305;DHT22;9278;52.156;21.048;2022-07-17T05:49:09;14.30;99.90
18305;DHT22;9278;52.156;21.048;2022-07-17T05:51:39;14.80;99.90
18305;DHT22;9278;52.156;21.048;2022-07-17T05:54:08;14.80;99.90
18305;DHT22;9278;52.156;21.048;2022-07-17T05:56:37;14.30;99.90
18305;DHT22;9278;52.156;21.048;2022-07-17T05:59:06;14.50;99.90
18305;DHT22;9278;52.156;21.048;2022-07-17T06:01:34;14.60;99.90
18305;DHT22;9278;52.156;21.048;2022-07-17T06:04:02;14.50;99.90
18305;DHT22;9278;52.156;21.048;2022-07-17T06:06:31;14.50;99.90
18305;DHT22;9278;52.156;21.048;2022-07-17T06:08:59;14.60;99.90
18305;DHT22;9278;52.156;21.048;2022-07-17T06:11:29;15.00;99.90
18305;DHT22;9278;52.156;21.048;2022-07-17T06:14:04;15.20;99.90
18305;DHT22;9278;52.156;21.048;2022-07-17T06:16:32;15.50;99.90
18305;DHT22;9278;52.156;21.048;2022-07-17T06:19:00;15.50;99.90
18305;DHT22;9278;52.156;21.048;2022-07-17T06:21:28;16.00;99.90
18305;DHT22;9278;52.156;21.048;2022-07-17T06:23:57;16.20;99.90
18305;DHT22;9278;52.156;21.048;2022-07-17T06:26:25;16.00;99.90
18305;DHT22;9278;52.156;21.048;2022-07-17T06:28:55;15.70;99.90
18305;DHT22;9278;52.156;21.048;2022-07-17T06:31:26;15.60;99.90
18305;DHT22;9278;52.156;21.048;2022-07-17T06:33:59;15.30;99.90
18305;DHT22;9278;52.156;21.048;2022-07-17T06:36:28;15.30;99.90
18305;DHT22;9278;52.156;21.048;2022-07-17T06:38:56;15.50;99.90
18305;DHT22;9278;52.156;21.048;2022-07-17T06:41:25;15.60;99.90
18305;DHT22;9278;52.156;21.048;2022-07-17T06:43:55;15.70;99.90
18305;DHT22;9278;52.156;21.048;2022-07-17T06:46:26;16.10;99.90
18305;DHT22;9278;52.156;21.048;2022-07-17T06:48:54;16.20;99.90
18305;DHT22;9278;52.156;21.048;2022-07-17T06:51:22;16.60;99.90
18305;DHT22;9278;52.156;21.048;2022-07-17T06:53:51;16.10;99.90
18305;DHT22;9278;52.156;21.048;2022-07-17T06:56:19;16.40;99.90
18305;DHT22;9278;52.156;21.048;2022-07-17T06:58:48;16.30;99.90
18305;DHT22;9278;52.156;21.048;2022-07-17T07:01:18;17.40;99.90
18305;DHT22;9278;52.156;21.048;2022-07-17T07:03:46;17.30;99.90
18305;DHT22;9278;52.156;21.048;2022-07-17T07:06:15;17.50;99.90
18305;DHT22;9278;52.156;21.048;2022-07-17T07:08:45;17.40;99.90
18305;DHT22;9278;52.156;21.048;2022-07-17T07:11:13;17.50;99.90
18305;DHT22;9278;52.156;21.048;2022-07-17T07:13:42;17.10;99.90
18305;DHT22;9278;52.156;21.048;2022-07-17T07:16:10;17.80;99.90
18305;DHT22;9278;52.156;21.048;2022-07-17T07:18:42;17.50;99.90
18305;DHT22;9278;52.156;21.048;2022-07-17T07:21:11;17.70;99.90
18305;DHT22;9278;52.156;21.048;2022-07-17T07:23:39;17.90;99.90
18305;DHT22;9278;52.156;21.048;2022-07-17T07:26:09;16.90;99.90
18305;DHT22;9278;52.156;21.048;2022-07-17T07:28:37;16.40;99.90
18305;DHT22;9278;52.156;21.048;2022-07-17T07:31:05;17.30;99.90
18305;DHT22;9278;52.156;21.048;2022-07-17T07:33:36;16.80;99.90
18305;DHT22;9278;52.156;21.048;2022-07-17T07:36:06;16.60;99.90
18305;DHT22;9278;52.156;21.048;2022-07-17T07:38:35;17.10;99.90
18305;DHT22;9278;52.156;21.048;2022-07-17T07:41:04;17.80;99.90
18305;DHT22;9278;52.156;21.048;2022-07-17T07:43:33;17.60;99.90
18305;DHT22;9278;52.156;21.048;2022-07-17T07:46:02;17.30;99.90
18305;DHT22;9278;52.156;21.048;2022-07-17T07:48:31;17.90;99.90
18305;DHT22;9278;52.156;21.048;2022-07-17T07:50:59;18.30;99.90
18305;DHT22;9278;52.156;21.048;2022-07-17T07:53:29;18.50;99.90
18305;DHT22;9278;52.156;21.048;2022-07-17T07:55:57;17.80;99.90
18305;DHT22;9278;52.156;21.048;2022-07-17T07:58:26;17.00;99.90
18305;DHT22;9278;52.156;21.048;2022-07-17T08:00:54;17.30;99.90
18305;DHT22;9278;52.156;21.048;2022-07-17T08:03:23;17.90;99.90
18305;DHT22;9278;52.156;21.048;2022-07-17T08:05:51;17.90;99.90
18305;DHT22;9278;52.156;21.048;2022-07-17T08:08:20;18.80;99.90
18305;DHT22;9278;52.156;21.048;2022-07-17T08:10:50;19.30;99.90
18305;DHT22;9278;52.156;21.048;2022-07-17T08:13:19;18.70;99.90
18305;DHT22;9278;52.156;21.048;2022-07-17T08:15:47;18.70;99.90
18305;DHT22;9278;52.156;21.048;2022-07-17T08:18:16;18.60;99.90
18305;DHT22;9278;52.156;21.048;2022-07-17T08:20:44;18.50;99.90
18305;DHT22;9278;52.156;21.048;2022-07-17T08:23:12;19.10;99.90
18305;DHT22;9278;52.156;21.048;2022-07-17T08:25:41;18.20;99.90
18305;DHT22;9278;52.156;21.048;2022-07-17T08:28:12;18.70;99.90
18305;DHT22;9278;52.156;21.048;2022-07-17T08:30:41;18.00;99.90
18305;DHT22;9278;52.156;21.048;2022-07-17T08:33:10;18.20;99.90
18305;DHT22;9278;52.156;21.048;2022-07-17T08:35:38;18.40;99.90
18305;DHT22;9278;52.156;21.048;2022-07-17T08:38:08;18.50;99.90
18305;DHT22;9278;52.156;21.048;2022-07-17T08:40:38;19.40;99.90
18305;DHT22;9278;52.156;21.048;2022-07-17T08:43:07;19.30;99.90
18305;DHT22;9278;52.156;21.048;2022-07-17T08:45:39;19.10;99.90
18305;DHT22;9278;52.156;21.048;2022-07-17T08:48:14;18.70;99.90
18305;DHT22;9278;52.156;21.048;2022-07-17T08:50:45;18.50;99.90
18305;DHT22;9278;52.156;21.048;2022-07-17T08:53:14;18.80;99.90
18305;DHT22;9278;52.156;21.048;2022-07-17T08:55:42;18.90;99.90
18305;DHT22;9278;52.156;21.048;2022-07-17T08:58:14;18.90;99.90
18305;DHT22;9278;52.156;21.048;2022-07-17T09:00:46;18.50;99.90
18305;DHT22;9278;52.156;21.048;2022-07-17T09:03:14;18.60;99.90
18305;DHT22;9278;52.156;21.048;2022-07-17T09:05:44;19.40;99.90
18305;DHT22;9278;52.156;21.048;2022-07-17T09:08:18;19.40;99.90
18305;DHT22;9278;52.156;21.048;2022-07-17T09:10:49;19.50;99.90
18305;DHT22;9278;52.156;21.048;2022-07-17T09:13:25;19.50;99.90
18305;DHT22;9278;52.156;21.048;2022-07-17T09:15:57;19.40;99.90
18305;DHT22;9278;52.156;21.048;2022-07-17T09:18:29;20.10;99.90
18305;DHT22;9278;52.156;21.048;2022-07-17T09:20:59;20.50;99.90
18305;DHT22;9278;52.156;21.048;2022-07-17T09:23:30;20.20;99.90
18305;DHT22;9278;52.156;21.048;2022-07-17T09:25:58;19.60;99.90
18305;DHT22;9278;52.156;21.048;2022-07-17T09:28:27;19.30;99.90
18305;DHT22;9278;52.156;21.048;2022-07-17T09:30:56;19.80;99.90
18305;DHT22;9278;52.156;21.048;2022-07-17T09:33:27;20.60;99.90
18305;DHT22;9278;52.156;21.048;2022-07-17T09:35:57;21.30;99.90
18305;DHT22;9278;52.156;21.048;2022-07-17T09:38:34;21.10;99.90
18305;DHT22;9278;52.156;21.048;2022-07-17T09:41:09;20.80;99.90
18305;DHT22;9278;52.156;21.048;2022-07-17T09:43:43;20.40;99.90
18305;DHT22;9278;52.156;21.048;2022-07-17T09:46:19;20.30;99.90
18305;DHT22;9278;52.156;21.048;2022-07-17T09:48:50;19.70;99.90
18305;DHT22;9278;52.156;21.048;2022-07-17T09:51:22;19.90;99.90
18305;DHT22;9278;52.156;21.048;2022-07-17T09:53:54;20.20;99.90
18305;DHT22;9278;52.156;21.048;2022-07-17T09:56:25;19.60;99.90
18305;DHT22;9278;52.156;21.048;2022-07-17T09:58:55;19.70;99.90
18305;DHT22;9278;52.156;21.048;2022-07-17T10:01:31;19.60;99.90
18305;DHT22;9278;52.156;21.048;2022-07-17T10:04:01;19.90;99.90
18305;DHT22;9278;52.156;21.048;2022-07-17T10:06:30;20.40;99.90
18305;DHT22;9278;52.156;21.048;2022-07-17T10:09:00;20.80;99.90
18305;DHT22;9278;52.156;21.048;2022-07-17T10:11:33;21.10;99.90
18305;DHT22;9278;52.156;21.048;2022-07-17T10:14:15;20.60;99.90
18305;DHT22;9278;52.156;21.048;2022-07-17T10:16:45;20.10;99.90
18305;DHT22;9278;52.156;21.048;2022-07-17T10:19:19;19.50;99.90
18305;DHT22;9278;52.156;21.048;2022-07-17T10:21:56;19.40;99.90
18305;DHT22;9278;52.156;21.048;2022-07-17T10:24:25;19.60;99.90
18305;DHT22;9278;52.156;21.048;2022-07-17T10:26:54;19.50;99.90
18305;DHT22;9278;52.156;21.048;2022-07-17T10:29:31;19.70;99.90
18305;DHT22;9278;52.156;21.048;2022-07-17T10:32:07;19.40;99.90
18305;DHT22;9278;52.156;21.048;2022-07-17T10:34:42;19.90;99.90
18305;DHT22;9278;52.156;21.048;2022-07-17T10:37:15;20.10;99.90
18305;DHT22;9278;52.156;21.048;2022-07-17T10:40:10;20.70;99.90
18305;DHT22;9278;52.156;21.048;2022-07-17T10:42:57;20.80;99.90
18305;DHT22;9278;52.156;21.048;2022-07-17T10:45:31;20.80;99.90
18305;DHT22;9278;52.156;21.048;2022-07-17T10:48:05;21.00;99.90
18305;DHT22;9278;52.156;21.048;2022-07-17T10:50:35;21.60;99.90
18305;DHT22;9278;52.156;21.048;2022-07-17T10:53:08;21.30;99.90
18305;DHT22;9278;52.156;21.048;2022-07-17T10:55:38;21.10;99.90
18305;DHT22;9278;52.156;21.048;2022-07-17T10:58:15;20.90;99.90
18305;DHT22;9278;52.156;21.048;2022-07-17T11:00:58;20.50;99.90
18305;DHT22;9278;52.156;21.048;2022-07-17T11:03:28;21.60;99.90
18305;DHT22;9278;52.156;21.048;2022-07-17T11:06:07;20.80;99.90
18305;DHT22;9278;52.156;21.048;2022-07-17T11:08:40;20.60;99.90
18305;DHT22;9278;52.156;21.048;2022-07-17T11:11:11;20.90;99.90
18305;DHT22;9278;52.156;21.048;2022-07-17T11:13:49;20.90;99.90
18305;DHT22;9278;52.156;21.048;2022-07-17T11:16:28;21.00;99.90
18305;DHT22;9278;52.156;21.048;2022-07-17T11:18:59;20.70;99.90
18305;DHT22;9278;52.156;21.048;2022-07-17T11:21:28;20.40;99.90
18305;DHT22;9278;52.156;21.048;2022-07-17T11:23:58;20.60;99.90
18305;DHT22;9278;52.156;21.048;2022-07-17T11:26:29;20.90;99.90
18305;DHT22;9278;52.156;21.048;2022-07-17T11:29:13;20.90;99.90
18305;DHT22;9278;52.156;21.048;2022-07-17T11:31:42;21.20;99.90
18305;DHT22;9278;52.156;21.048;2022-07-17T11:34:13;20.70;99.90
18305;DHT22;9278;52.156;21.048;2022-07-17T11:36:42;20.40;99.90
18305;DHT22;9278;52.156;21.048;2022-07-17T11:39:13;20.30;99.90
18305;DHT22;9278;52.156;21.048;2022-07-17T11:41:43;20.10;99.90
18305;DHT22;9278;52.156;21.048;2022-07-17T11:44:14;20.10;99.90
18305;DHT22;9278;52.156;21.048;2022-07-17T11:46:45;19.90;99.90
18305;DHT22;9278;52.156;21.048;2022-07-17T11:49:25;20.10;99.90
18305;DHT22;9278;52.156;21.048;2022-07-17T11:51:56;20.20;99.90
18305;DHT22;9278;52.156;21.048;2022-07-17T11:54:26;20.50;99.90
18305;DHT22;9278;52.156;21.048;2022-07-17T11:56:56;20.50;99.90
18305;DHT22;9278;52.156;21.048;2022-07-17T11:59:26;20.60;99.90
18305;DHT22;9278;52.156;21.048;2022-07-17T12:01:55;20.50;99.90
18305;DHT22;9278;52.156;21.048;2022-07-17T12:04:25;20.30;99.90
18305;DHT22;9278;52.156;21.048;2022-07-17T12:07:03;20.30;99.90
18305;DHT22;9278;52.156;21.048;2022-07-17T12:09:33;20.30;99.90
18305;DHT22;9278;52.156;21.048;2022-07-17T12:12:02;20.10;99.90
18305;DHT22;9278;52.156;21.048;2022-07-17T12:14:31;20.30;99.90
18305;DHT22;9278;52.156;21.048;2022-07-17T12:17:16;20.60;99.90
18305;DHT22;9278;52.156;21.048;2022-07-17T12:19:45;20.70;99.90
18305;DHT22;9278;52.156;21.048;2022-07-17T12:22:14;20.70;99.90
18305;DHT22;9278;52.156;21.048;2022-07-17T12:24:44;20.70;99.90
18305;DHT22;9278;52.156;21.048;2022-07-17T12:27:15;20.60;99.90
18305;DHT22;9278;52.156;21.048;2022-07-17T12:29:44;20.60;99.90
18305;DHT22;9278;52.156;21.048;2022-07-17T12:32:14;20.40;99.90
18305;DHT22;9278;52.156;21.048;2022-07-17T12:34:46;20.40;99.90
18305;DHT22;9278;52.156;21.048;2022-07-17T12:37:16;20.50;99.90
18305;DHT22;9278;52.156;21.048;2022-07-17T12:39:46;20.70;99.90
18305;DHT22;9278;52.156;21.048;2022-07-17T12:42:16;21.00;99.90
18305;DHT22;9278;52.156;21.048;2022-07-17T12:44:44;21.50;99.90
18305;DHT22;9278;52.156;21.048;2022-07-17T12:47:15;22.00;99.90
18305;DHT22;9278;52.156;21.048;2022-07-17T12:49:48;21.70;99.90
18305;DHT22;9278;52.156;21.048;2022-07-17T12:52:16;22.30;99.70
18305;DHT22;9278;52.156;21.048;2022-07-17T12:54:45;21.80;99.70
18305;DHT22;9278;52.156;21.048;2022-07-17T12:57:13;21.90;97.60
18305;DHT22;9278;52.156;21.048;2022-07-17T12:59:42;22.40;97.10
18305;DHT22;9278;52.156;21.048;2022-07-17T13:02:10;21.80;97.20
18305;DHT22;9278;52.156;21.048;2022-07-17T13:04:40;21.60;97.00
18305;DHT22;9278;52.156;21.048;2022-07-17T13:07:09;21.70;97.60
18305;DHT22;9278;52.156;21.048;2022-07-17T13:09:38;21.70;97.10
18305;DHT22;9278;52.156;21.048;2022-07-17T13:12:06;21.60;97.50
18305;DHT22;9278;52.156;21.048;2022-07-17T13:14:34;21.60;95.90
18305;DHT22;9278;52.156;21.048;2022-07-17T13:17:03;21.40;96.70
18305;DHT22;9278;52.156;21.048;2022-07-17T13:19:31;21.40;96.50
18305;DHT22;9278;52.156;21.048;2022-07-17T13:22:01;21.50;96.80
18305;DHT22;9278;52.156;21.048;2022-07-17T13:24:34;21.70;95.60
18305;DHT22;9278;52.156;21.048;2022-07-17T13:27:02;21.80;95.10
18305;DHT22;9278;52.156;21.048;2022-07-17T13:29:46;21.60;96.30
18305;DHT22;9278;52.156;21.048;2022-07-17T13:32:35;21.70;99.90
18305;DHT22;9278;52.156;21.048;2022-07-17T13:36:37;21.90;98.40
18305;DHT22;9278;52.156;21.048;2022-07-17T13:39:05;22.30;94.60
18305;DHT22;9278;52.156;21.048;2022-07-17T13:41:36;22.20;96.10
18305;DHT22;9278;52.156;21.048;2022-07-17T13:44:06;22.50;93.40
18305;DHT22;9278;52.156;21.048;2022-07-17T13:46:35;22.70;91.90
18305;DHT22;9278;52.156;21.048;2022-07-17T13:49:04;22.60;91.90
18305;DHT22;9278;52.156;21.048;2022-07-17T13:51:33;23.20;90.30
18305;DHT22;9278;52.156;21.048;2022-07-17T13:54:02;22.60;89.70
18305;DHT22;9278;52.156;21.048;2022-07-17T13:56:30;23.20;90.20
18305;DHT22;9278;52.156;21.048;2022-07-17T13:59:00;23.00;89.00
18305;DHT22;9278;52.156;21.048;2022-07-17T14:01:29;22.70;90.40
18305;DHT22;9278;52.156;21.048;2022-07-17T14:03:57;22.50;89.10
18305;DHT22;9278;52.156;21.048;2022-07-17T14:06:26;22.50;89.70
18305;DHT22;9278;52.156;21.048;2022-07-17T14:08:54;22.50;89.30
18305;DHT22;9278;52.156;21.048;2022-07-17T14:11:23;22.00;90.40
18305;DHT22;9278;52.156;21.048;2022-07-17T14:13:51;21.80;91.00
18305;DHT22;9278;52.156;21.048;2022-07-17T14:16:21;21.80;91.20
18305;DHT22;9278;52.156;21.048;2022-07-17T14:18:49;22.20;91.30
18305;DHT22;9278;52.156;21.048;2022-07-17T14:21:29;22.00;89.90
18305;DHT22;9278;52.156;21.048;2022-07-17T14:23:58;22.40;88.30
18305;DHT22;9278;52.156;21.048;2022-07-17T14:26:28;22.20;86.80
18305;DHT22;9278;52.156;21.048;2022-07-17T14:28:57;22.20;87.60
18305;DHT22;9278;52.156;21.048;2022-07-17T14:31:27;22.50;86.70
18305;DHT22;9278;52.156;21.048;2022-07-17T14:33:55;21.90;99.90
18305;DHT22;9278;52.156;21.048;2022-07-17T14:36:24;22.10;89.20
18305;DHT22;9278;52.156;21.048;2022-07-17T14:38:52;21.80;89.20
18305;DHT22;9278;52.156;21.048;2022-07-17T14:41:21;21.70;88.70
18305;DHT22;9278;52.156;21.048;2022-07-17T14:43:50;21.60;90.10
18305;DHT22;9278;52.156;21.048;2022-07-17T14:46:18;21.60;90.80
18305;DHT22;9278;52.156;21.048;2022-07-17T14:48:48;21.80;90.00
18305;DHT22;9278;52.156;21.048;2022-07-17T14:51:16;22.30;90.10
18305;DHT22;9278;52.156;21.048;2022-07-17T14:53:44;22.30;85.60
18305;DHT22;9278;52.156;21.048;2022-07-17T14:56:13;22.50;84.70
18305;DHT22;9278;52.156;21.048;2022-07-17T14:58:41;22.30;86.20
18305;DHT22;9278;52.156;21.048;2022-07-17T15:01:10;22.40;86.30
18305;DHT22;9278;52.156;21.048;2022-07-17T15:03:39;22.20;87.70
18305;DHT22;9278;52.156;21.048;2022-07-17T15:06:09;22.70;83.10
18305;DHT22;9278;52.156;21.048;2022-07-17T15:08:39;22.50;95.70
18305;DHT22;9278;52.156;21.048;2022-07-17T15:11:08;22.70;85.60
18305;DHT22;9278;52.156;21.048;2022-07-17T15:13:39;22.10;93.20
18305;DHT22;9278;52.156;21.048;2022-07-17T15:16:08;21.90;92.10
18305;DHT22;9278;52.156;21.048;2022-07-17T15:18:37;21.90;87.10
18305;DHT22;9278;52.156;21.048;2022-07-17T15:21:05;22.80;86.10
18305;DHT22;9278;52.156;21.048;2022-07-17T15:23:40;22.10;82.70
18305;DHT22;9278;52.156;21.048;2022-07-17T15:26:09;22.10;87.00
18305;DHT22;9278;52.156;21.048;2022-07-17T15:28:38;22.30;84.50
18305;DHT22;9278;52.156;21.048;2022-07-17T15:31:06;21.80;88.40
18305;DHT22;9278;52.156;21.048;2022-07-17T15:33:35;21.80;84.80
18305;DHT22;9278;52.156;21.048;2022-07-17T15:36:09;22.10;83.80
18305;DHT22;9278;52.156;21.048;2022-07-17T15:38:38;22.30;89.10
18305;DHT22;9278;52.156;21.048;2022-07-17T15:41:08;21.90;98.20
18305;DHT22;9278;52.156;21.048;2022-07-17T15:43:38;21.80;80.30
18305;DHT22;9278;52.156;21.048;2022-07-17T15:46:09;22.00;81.50
18305;DHT22;9278;52.156;21.048;2022-07-17T15:48:37;21.80;80.40